Time;durP1;ratioP1;P1;durP2;ratioP2;P2;SDS_P1;SDS_P2;PMS_P1;PMS_P2;Temp;Humidity;BMP_temperature;BMP_pressure;BME280_temperature;BME280_humidity;BME280_pressure;Samples;Min_cycle;Max_cycle;Signal;HPM_P1;HPM_P2
2023/05/15 00:01:51;;;;;;;64.47;47.63;;;11.80;99.90;;;;;;7363977;19;20018;-65
2023/05/15 00:04:17;;;;;;;72.55;51.30;;;11.80;99.90;;;;;;7370691;19;20018;-60
2023/05/15 00:06:44;;;;;;;68.65;49.20;;;11.80;99.90;;;;;;7371282;19;20021;-65
2023/05/15 00:09:11;;;;;;;71.07;51.45;;;11.80;99.90;;;;;;7364921;19;20321;-64
2023/05/15 00:11:37;;;;;;;72.70;51.17;;;11.70;99.90;;;;;;7371439;19;20683;-60
2023/05/15 00:14:03;;;;;;;72.65;51.58;;;11.60;99.90;;;;;;7369515;19;20027;-60
2023/05/15 00:16:30;;;;;;;67.18;50.60;;;11.70;99.90;;;;;;7371708;19;20090;-60
2023/05/15 00:18:56;;;;;;;68.85;48.50;;;11.70;99.90;;;;;;7365385;19;20022;-65
2023/05/15 00:21:22;;;;;;;69.38;50.80;;;11.70;99.90;;;;;;7363828;19;20033;-61
2023/05/15 00:23:48;;;;;;;62.15;47.67;;;11.70;99.90;;;;;;7371190;19;20517;-62
2023/05/15 00:26:14;;;;;;;65.88;50.03;;;11.80;99.90;;;;;;7372855;19;20071;-60
2023/05/15 00:28:41;;;;;;;66.50;47.95;;;11.80;99.90;;;;;;7367695;19;21002;-59
2023/05/15 00:31:07;;;;;;;63.28;48.42;;;11.70;99.90;;;;;;7372811;19;20037;-64
2023/05/15 00:33:33;;;;;;;59.70;46.90;;;11.80;99.90;;;;;;7369852;19;20095;-60
2023/05/15 00:36:00;;;;;;;73.68;47.92;;;11.80;99.90;;;;;;7369086;19;20376;-60
2023/05/15 00:38:32;;;;;;;61.78;46.38;;;11.70;99.90;;;;;;7369198;19;20052;-64
2023/05/15 00:41:00;;;;;;;58.58;45.75;;;11.70;99.90;;;;;;7364054;19;20490;-60
2023/05/15 00:43:27;;;;;;;63.88;47.42;;;11.70;99.90;;;;;;7365914;19;20021;-60
2023/05/15 00:45:56;;;;;;;62.95;47.10;;;11.70;99.90;;;;;;7367499;19;20307;-62
2023/05/15 00:48:24;;;;;;;64.97;48.00;;;11.60;99.90;;;;;;7363024;19;20014;-64
2023/05/15 00:50:56;;;;;;;57.60;45.40;;;11.60;99.90;;;;;;7364186;19;20019;-65
2023/05/15 00:53:23;;;;;;;61.05;45.95;;;11.60;99.90;;;;;;7368093;19;20448;-64
2023/05/15 00:55:50;;;;;;;80.20;44.53;;;11.50;99.90;;;;;;7369153;19;20508;-59
2023/05/15 00:58:20;;;;;;;69.45;44.10;;;11.40;99.90;;;;;;7368856;19;20041;-60
2023/05/15 01:00:48;;;;;;;57.65;40.38;;;11.30;99.90;;;;;;7362004;19;20074;-59
2023/05/15 01:03:17;;;;;;;55.90;40.75;;;11.30;99.90;;;;;;7368238;19;20031;-60
2023/05/15 01:05:43;;;;;;;69.30;44.20;;;11.30;99.90;;;;;;7366924;19;20018;-64
2023/05/15 01:08:38;;;;;;;53.45;41.05;;;11.20;99.90;;;;;;7369775;19;20029;-64
2023/05/15 01:11:06;;;;;;;48.97;40.13;;;11.20;99.90;;;;;;7366801;19;20041;-59
2023/05/15 01:13:33;;;;;;;67.75;43.30;;;11.30;99.90;;;;;;7367153;19;20085;-65
2023/05/15 01:15:59;;;;;;;70.47;43.00;;;11.20;99.90;;;;;;7358381;19;20032;-60
2023/05/15 01:18:31;;;;;;;50.70;41.58;;;11.20;99.90;;;;;;7365232;19;20022;-64
2023/05/15 01:20:57;;;;;;;;;;;11.10;99.90;;;;;;7372721;19;20489;-64
2023/05/15 01:24:02;;;;;;;77.13;42.85;;;11.20;99.90;;;;;;7369788;19;19926;-63
2023/05/15 01:26:34;;;;;;;59.97;42.78;;;11.20;99.90;;;;;;7368399;19;20074;-65
2023/05/15 01:29:35;;;;;;;55.97;43.83;;;11.10;99.90;;;;;;7363998;19;20026;-64
2023/05/15 01:32:05;;;;;;;58.53;43.90;;;11.20;99.90;;;;;;7358657;19;20026;-65
2023/05/15 01:34:42;;;;;;;59.10;44.80;;;11.20;99.90;;;;;;7363733;19;20042;-64
2023/05/15 01:37:11;;;;;;;56.10;43.38;;;11.30;99.90;;;;;;7366818;19;20018;-59
2023/05/15 01:39:41;;;;;;;53.30;42.20;;;11.40;99.90;;;;;;7363112;19;20026;-60
2023/05/15 01:42:09;;;;;;;52.65;41.55;;;11.40;99.90;;;;;;7364951;19;20019;-65
2023/05/15 01:44:40;;;;;;;58.03;40.03;;;11.30;99.90;;;;;;7361954;19;20014;-65
2023/05/15 01:47:19;;;;;;;65.50;41.33;;;11.30;99.90;;;;;;7368777;19;20398;-59
2023/05/15 01:49:48;;;;;;;47.03;39.63;;;11.20;99.90;;;;;;7370122;19;20018;-59
2023/05/15 01:52:21;;;;;;;55.42;41.75;;;11.20;99.90;;;;;;7365764;19;20015;-60
2023/05/15 01:54:49;;;;;;;59.78;41.78;;;11.20;99.90;;;;;;7364196;19;20397;-59
2023/05/15 01:57:17;;;;;;;63.78;43.83;;;11.20;99.90;;;;;;7366602;19;20477;-60
2023/05/15 01:59:44;;;;;;;58.88;42.95;;;11.20;99.90;;;;;;7357710;19;20078;-59
2023/05/15 02:02:12;;;;;;;73.90;42.42;;;11.10;99.90;;;;;;7368878;19;20034;-59
2023/05/15 02:04:39;;;;;;;58.55;43.03;;;11.00;99.90;;;;;;7368795;19;20018;-59
2023/05/15 02:07:06;;;;;;;57.72;43.13;;;11.10;99.90;;;;;;7365975;19;20461;-59
2023/05/15 02:09:35;;;;;;;71.00;43.67;;;11.10;99.90;;;;;;7362324;19;20445;-59
2023/05/15 02:12:02;;;;;;;57.13;43.13;;;11.10;99.90;;;;;;7361552;19;20014;-59
2023/05/15 02:14:30;;;;;;;72.43;45.40;;;11.00;99.90;;;;;;7363996;19;20023;-60
2023/05/15 02:16:56;;;;;;;63.58;45.75;;;11.00;99.90;;;;;;7364656;19;20560;-59
2023/05/15 02:19:23;;;;;;;58.95;43.28;;;11.00;99.90;;;;;;7369903;19;20022;-60
2023/05/15 02:21:50;;;;;;;53.00;41.65;;;11.10;99.90;;;;;;7368409;19;20026;-60
2023/05/15 02:24:19;;;;;;;53.92;42.90;;;11.10;99.90;;;;;;7363252;19;20366;-60
2023/05/15 02:27:03;;;;;;;56.90;44.22;;;11.10;99.90;;;;;;7362117;19;20604;-60
2023/05/15 02:29:32;;;;;;;62.70;44.80;;;11.10;99.90;;;;;;7368021;19;20098;-60
2023/05/15 02:32:02;;;;;;;53.95;42.38;;;11.10;99.90;;;;;;7364723;19;20382;-60
2023/05/15 02:34:42;;;;;;;81.32;46.15;;;11.20;99.90;;;;;;7360428;19;20018;-60
2023/05/15 02:37:14;;;;;;;72.22;42.78;;;11.10;99.90;;;;;;7358055;19;20019;-65
2023/05/15 02:39:44;;;;;;;69.55;45.58;;;11.00;99.90;;;;;;7362742;19;20026;-60
2023/05/15 02:42:13;;;;;;;78.75;47.08;;;10.90;99.90;;;;;;7370627;19;20047;-59
2023/05/15 02:44:42;;;;;;;66.80;45.78;;;11.00;99.90;;;;;;7367695;19;20025;-60
2023/05/15 02:47:10;;;;;;;58.95;43.47;;;10.90;99.90;;;;;;7367146;19;20025;-59
2023/05/15 02:49:37;;;;;;;72.90;41.58;;;10.80;99.90;;;;;;7373069;19;20109;-59
2023/05/15 02:52:07;;;;;;;57.92;42.03;;;10.90;99.90;;;;;;7371051;19;20389;-64
2023/05/15 02:54:33;;;;;;;64.75;43.53;;;10.90;99.90;;;;;;7364825;19;20086;-65
2023/05/15 02:56:59;;;;;;;67.68;44.45;;;10.90;99.90;;;;;;7358740;19;20029;-64
2023/05/15 02:59:26;;;;;;;82.35;46.30;;;10.90;99.90;;;;;;7364239;19;20402;-67
2023/05/15 03:01:55;;;;;;;76.10;46.30;;;10.90;99.90;;;;;;7375744;19;20457;-65
2023/05/15 03:04:22;;;;;;;77.32;46.97;;;10.80;99.90;;;;;;7368762;19;20025;-65
2023/05/15 03:06:48;;;;;;;75.70;47.47;;;10.80;99.90;;;;;;7362668;19;20434;-65
2023/05/15 03:09:15;;;;;;;78.30;49.35;;;10.80;99.90;;;;;;7366383;19;20703;-66
2023/05/15 03:11:42;;;;;;;73.43;46.88;;;10.90;99.90;;;;;;7371399;19;20016;-60
2023/05/15 03:14:08;;;;;;;69.30;46.45;;;10.90;99.90;;;;;;7371843;19;20054;-60
2023/05/15 03:16:35;;;;;;;67.50;47.45;;;10.90;99.90;;;;;;7370816;19;20053;-60
2023/05/15 03:19:02;;;;;;;83.70;48.35;;;10.90;99.90;;;;;;7375850;19;20023;-60
2023/05/15 03:21:28;;;;;;;62.42;46.00;;;10.90;99.90;;;;;;7374420;19;20026;-65
2023/05/15 03:23:55;;;;;;;70.65;47.15;;;10.80;99.90;;;;;;7371928;19;20608;-64
2023/05/15 03:26:21;;;;;;;63.50;46.42;;;10.90;99.90;;;;;;7371682;19;20022;-65
2023/05/15 03:28:52;;;;;;;79.65;47.90;;;10.90;99.90;;;;;;7362495;19;20374;-65
2023/05/15 03:31:18;;;;;;;77.28;48.05;;;10.90;99.90;;;;;;7368916;19;20454;-64
2023/05/15 03:33:48;;;;;;;79.72;47.65;;;10.90;99.90;;;;;;7365107;19;20026;-66
2023/05/15 03:36:15;;;;;;;88.35;47.92;;;10.90;99.90;;;;;;7359547;19;20019;-65
2023/05/15 03:38:43;;;;;;;82.28;49.63;;;10.90;99.90;;;;;;7370002;19;20014;-65
2023/05/15 03:41:09;;;;;;;79.07;48.58;;;10.90;99.90;;;;;;7367952;19;20046;-65
2023/05/15 03:43:36;;;;;;;83.07;48.88;;;10.90;99.90;;;;;;7373118;19;20482;-64
2023/05/15 03:46:02;;;;;;;130.82;50.63;;;10.90;99.90;;;;;;7374327;19;20018;-64
2023/05/15 03:48:28;;;;;;;99.55;49.70;;;10.80;99.90;;;;;;7365724;19;20042;-65
2023/05/15 03:50:55;;;;;;;109.85;47.58;;;10.80;99.90;;;;;;7368758;19;20019;-64
2023/05/15 03:53:22;;;;;;;104.70;46.58;;;10.60;99.90;;;;;;7367425;19;20352;-64
2023/05/15 03:55:48;;;;;;;64.07;44.58;;;10.50;99.90;;;;;;7370402;19;20489;-65
2023/05/15 03:58:14;;;;;;;84.13;47.53;;;10.50;99.90;;;;;;7361152;19;20019;-64
2023/05/15 04:00:40;;;;;;;61.03;45.15;;;10.50;99.90;;;;;;7367478;19;20546;-65
2023/05/15 04:03:07;;;;;;;72.57;42.22;;;10.60;99.90;;;;;;7365823;19;20501;-66
2023/05/15 04:05:33;;;;;;;81.70;44.50;;;10.50;99.90;;;;;;7364383;19;20026;-65
2023/05/15 04:07:59;;;;;;;68.35;43.70;;;10.50;99.90;;;;;;7371632;19;20037;-66
2023/05/15 04:10:26;;;;;;;60.38;40.08;;;10.50;99.90;;;;;;7367141;19;20370;-64
2023/05/15 04:12:53;;;;;;;52.80;40.03;;;10.40;99.90;;;;;;7362065;19;20018;-67
2023/05/15 04:15:22;;;;;;;57.25;40.63;;;10.40;99.90;;;;;;7359281;19;20527;-65
2023/05/15 04:17:50;;;;;;;53.08;38.78;;;10.30;99.90;;;;;;7361741;19;20569;-60
2023/05/15 04:20:19;;;;;;;51.75;39.08;;;10.30;99.90;;;;;;7372682;19;20023;-60
2023/05/15 04:22:45;;;;;;;57.40;41.10;;;10.40;99.90;;;;;;7367274;19;20607;-66
2023/05/15 04:25:13;;;;;;;61.88;41.60;;;10.30;99.90;;;;;;7370648;19;20025;-66
2023/05/15 04:27:40;;;;;;;52.55;40.22;;;10.30;99.90;;;;;;7371310;19;20026;-66
2023/05/15 04:30:07;;;;;;;54.10;39.47;;;10.30;99.90;;;;;;7366210;19;20025;-63
2023/05/15 04:32:34;;;;;;;47.00;37.40;;;10.30;99.90;;;;;;7367343;19;20018;-60
2023/05/15 04:35:05;;;;;;;50.70;39.10;;;10.30;99.90;;;;;;7371350;19;20057;-60
2023/05/15 04:37:31;;;;;;;53.25;39.58;;;10.20;99.90;;;;;;7366576;19;20022;-61
2023/05/15 04:39:58;;;;;;;53.35;38.50;;;10.30;99.90;;;;;;7367839;19;20225;-60
2023/05/15 04:42:25;;;;;;;47.45;36.25;;;10.30;99.90;;;;;;7366643;19;20018;-60
2023/05/15 04:44:52;;;;;;;47.35;35.58;;;10.40;99.90;;;;;;7359679;19;20018;-60
2023/05/15 04:47:18;;;;;;;46.80;35.97;;;10.30;99.90;;;;;;7367273;19;20018;-60
2023/05/15 04:49:46;;;;;;;50.22;36.92;;;10.20;99.90;;;;;;7371128;19;20018;-61
2023/05/15 04:52:13;;;;;;;53.65;38.28;;;10.20;99.90;;;;;;7371789;19;20029;-60
2023/05/15 04:54:39;;;;;;;54.08;38.08;;;10.30;99.90;;;;;;7359667;19;20034;-60
2023/05/15 04:57:05;;;;;;;48.33;35.92;;;10.20;99.90;;;;;;7367229;19;20109;-60
2023/05/15 04:59:31;;;;;;;45.63;34.50;;;10.20;99.90;;;;;;7364353;19;20026;-60
2023/05/15 05:02:00;;;;;;;40.47;33.17;;;10.20;99.90;;;;;;7362083;19;20018;-60
2023/05/15 05:04:29;;;;;;;43.47;35.28;;;10.20;99.90;;;;;;7367314;19;20078;-67
2023/05/15 05:06:55;;;;;;;41.58;32.75;;;10.10;99.90;;;;;;7371601;19;20019;-67
2023/05/15 05:09:21;;;;;;;38.90;31.27;;;10.10;99.90;;;;;;7361272;19;20026;-67
2023/05/15 05:11:48;;;;;;;39.78;32.15;;;10.10;99.90;;;;;;7367066;19;20493;-68
2023/05/15 05:14:15;;;;;;;41.60;33.30;;;10.20;99.90;;;;;;7371814;19;20019;-68
2023/05/15 05:16:44;;;;;;;46.42;33.00;;;10.20;99.90;;;;;;7363503;19;20505;-67
2023/05/15 05:19:10;;;;;;;47.67;35.58;;;10.10;99.90;;;;;;7371094;19;20508;-67
2023/05/15 05:21:37;;;;;;;46.95;34.72;;;10.10;99.90;;;;;;7370787;19;20022;-68
2023/05/15 05:24:03;;;;;;;45.45;35.42;;;10.10;99.90;;;;;;7370106;19;20034;-61
2023/05/15 05:26:29;;;;;;;45.97;36.33;;;10.20;99.90;;;;;;7368868;19;20486;-68
2023/05/15 05:28:55;;;;;;;44.47;36.50;;;10.30;99.90;;;;;;7369336;19;20010;-70
2023/05/15 05:31:21;;;;;;;42.25;33.75;;;10.40;99.90;;;;;;7365212;19;20482;-68
2023/05/15 05:33:51;;;;;;;41.33;34.63;;;10.10;99.90;;;;;;7365842;19;20473;-68
2023/05/15 05:36:17;;;;;;;42.38;34.05;;;10.20;99.90;;;;;;7369188;19;20021;-60
2023/05/15 05:38:44;;;;;;;42.38;33.88;;;10.10;99.90;;;;;;7367333;19;20022;-64
2023/05/15 05:41:10;;;;;;;41.10;32.78;;;10.20;99.90;;;;;;7364143;19;20028;-69
2023/05/15 05:43:36;;;;;;;41.90;33.55;;;10.30;99.90;;;;;;7365529;19;20472;-62
2023/05/15 05:46:02;;;;;;;41.08;33.70;;;10.40;99.90;;;;;;7371429;19;20086;-68
2023/05/15 05:48:30;;;;;;;40.05;33.50;;;10.50;99.90;;;;;;7366880;19;20030;-68
2023/05/15 05:50:59;;;;;;;40.60;32.03;;;10.70;99.90;;;;;;7365396;19;20018;-68
2023/05/15 05:53:25;;;;;;;40.15;32.40;;;10.60;99.90;;;;;;7371537;19;20524;-68
2023/05/15 05:55:52;;;;;;;38.05;30.67;;;10.70;99.90;;;;;;7364870;19;20014;-67
2023/05/15 05:58:18;;;;;;;35.33;29.92;;;10.70;99.90;;;;;;7362987;19;20022;-67
2023/05/15 06:00:44;;;;;;;32.13;28.67;;;10.80;99.90;;;;;;7370081;19;20033;-68
2023/05/15 06:03:11;;;;;;;34.08;29.48;;;10.80;99.90;;;;;;7369995;19;20029;-66
2023/05/15 06:05:37;;;;;;;33.15;29.65;;;10.90;99.90;;;;;;7370960;19;20018;-68
2023/05/15 06:08:03;;;;;;;33.70;29.50;;;11.00;99.90;;;;;;7369129;19;20525;-68
2023/05/15 06:10:30;;;;;;;31.27;28.08;;;11.10;99.90;;;;;;7369407;19;20019;-68
2023/05/15 06:12:56;;;;;;;32.58;27.80;;;11.30;99.90;;;;;;7366814;19;20015;-68
2023/05/15 06:15:23;;;;;;;30.70;27.48;;;11.50;99.90;;;;;;7365031;19;20464;-69
2023/05/15 06:17:52;;;;;;;31.67;28.30;;;11.80;99.90;;;;;;7363695;19;20406;-68
2023/05/15 06:20:19;;;;;;;30.25;27.20;;;11.90;99.90;;;;;;7363472;19;20022;-68
2023/05/15 06:22:45;;;;;;;30.50;27.40;;;12.00;99.90;;;;;;7356231;19;20022;-68
2023/05/15 06:25:14;;;;;;;28.95;25.92;;;12.00;99.90;;;;;;7360834;19;21380;-69
2023/05/15 06:27:41;;;;;;;28.75;25.88;;;12.30;99.90;;;;;;7366177;19;20713;-69
2023/05/15 06:30:08;;;;;;;32.22;25.58;;;12.40;99.90;;;;;;7363683;19;20022;-69
2023/05/15 06:32:34;;;;;;;25.98;23.27;;;12.60;99.90;;;;;;7370149;19;20010;-69
2023/05/15 06:35:01;;;;;;;27.92;25.13;;;12.60;99.90;;;;;;7367143;19;20013;-69
2023/05/15 06:37:29;;;;;;;27.73;24.95;;;12.90;99.90;;;;;;7370246;19;20456;-65
2023/05/15 06:39:55;;;;;;;24.73;22.30;;;13.20;99.90;;;;;;7367214;19;20019;-71
2023/05/15 06:42:22;;;;;;;25.20;22.70;;;13.50;99.90;;;;;;7370219;19;20026;-69
2023/05/15 06:44:48;;;;;;;24.92;22.42;;;13.70;99.90;;;;;;7370461;19;20018;-69
2023/05/15 06:47:15;;;;;;;24.10;21.55;;;13.80;99.90;;;;;;7368765;19;20346;-69
2023/05/15 06:49:41;;;;;;;23.13;20.83;;;14.00;99.90;;;;;;7365324;19;20513;-69
2023/05/15 06:52:07;;;;;;;22.67;20.35;;;14.20;99.90;;;;;;7366052;19;20361;-70
2023/05/15 06:54:33;;;;;;;22.98;20.88;;;14.30;99.90;;;;;;7359731;19;20035;-69
2023/05/15 06:57:00;;;;;;;22.88;20.77;;;14.40;99.90;;;;;;7359205;19;20019;-69
2023/05/15 06:59:27;;;;;;;22.15;20.15;;;14.70;99.90;;;;;;7368762;19;20383;-69
2023/05/15 07:01:54;;;;;;;23.17;20.90;;;14.70;99.90;;;;;;7365451;19;20100;-69
2023/05/15 07:04:21;;;;;;;24.40;21.92;;;14.90;99.90;;;;;;7370546;19;20054;-69
2023/05/15 07:06:47;;;;;;;21.45;19.55;;;15.30;99.90;;;;;;7365821;19;20022;-68
2023/05/15 07:09:13;;;;;;;22.27;19.95;;;15.30;99.90;;;;;;7369576;19;20497;-71
2023/05/15 07:11:41;;;;;;;21.55;19.33;;;15.40;99.90;;;;;;7364061;19;20014;-71
2023/05/15 07:14:07;;;;;;;21.27;19.35;;;15.70;99.90;;;;;;7369294;19;20091;-70
2023/05/15 07:16:34;;;;;;;21.15;19.35;;;15.80;99.90;;;;;;7365667;19;20346;-70
2023/05/15 07:19:00;;;;;;;20.63;18.70;;;16.00;99.90;;;;;;7367731;19;20482;-70
2023/05/15 07:21:26;;;;;;;21.08;18.88;;;16.10;99.90;;;;;;7364284;19;20713;-71
2023/05/15 07:23:52;;;;;;;19.48;17.67;;;16.20;99.90;;;;;;7359168;19;20021;-71
2023/05/15 07:26:19;;;;;;;20.50;18.65;;;16.40;99.90;;;;;;7361284;19;20648;-71
2023/05/15 07:28:46;;;;;;;19.17;17.27;;;16.20;99.90;;;;;;7355728;19;20370;-71
2023/05/15 07:31:13;;;;;;;19.42;17.73;;;16.50;99.90;;;;;;7357446;19;20025;-70
2023/05/15 07:33:39;;;;;;;19.77;17.88;;;16.50;99.90;;;;;;7370110;19;20019;-70
2023/05/15 07:36:05;;;;;;;18.92;17.13;;;16.70;99.90;;;;;;7377034;19;20018;-70
2023/05/15 07:38:32;;;;;;;20.45;18.55;;;16.70;99.90;;;;;;7376176;19;20063;-71
2023/05/15 07:40:58;;;;;;;18.02;16.33;;;17.20;99.90;;;;;;7377034;19;20014;-70
2023/05/15 07:43:24;;;;;;;18.40;16.70;;;17.20;99.90;;;;;;7371359;19;20409;-71
2023/05/15 07:45:51;;;;;;;20.40;18.35;;;17.60;99.90;;;;;;7373935;19;20022;-70
2023/05/15 07:48:18;;;;;;;18.27;16.67;;;17.90;99.90;;;;;;7374793;19;20014;-68
2023/05/15 07:50:45;;;;;;;18.63;16.85;;;17.90;99.90;;;;;;7377754;19;20018;-68
2023/05/15 07:53:15;;;;;;;17.75;15.95;;;17.80;99.90;;;;;;7373816;19;20872;-68
2023/05/15 07:55:43;;;;;;;23.83;21.60;;;18.20;99.90;;;;;;7375038;19;20727;-67
2023/05/15 07:58:09;;;;;;;24.40;22.10;;;18.30;99.90;;;;;;7372856;19;20026;-61
2023/05/15 08:00:36;;;;;;;17.73;16.10;;;18.60;99.90;;;;;;7370742;19;20011;-61
2023/05/15 08:03:02;;;;;;;17.75;16.15;;;18.20;99.90;;;;;;7358292;19;20018;-70
2023/05/15 08:05:29;;;;;;;17.35;15.85;;;18.50;99.90;;;;;;7365076;19;20035;-70
2023/05/15 08:07:56;;;;;;;17.27;15.48;;;18.90;99.90;;;;;;7366033;19;20886;-61
2023/05/15 08:10:23;;;;;;;16.35;14.95;;;18.90;99.90;;;;;;7359708;19;20510;-71
2023/05/15 08:12:49;;;;;;;16.23;14.73;;;19.20;99.90;;;;;;7362285;19;20019;-71
2023/05/15 08:15:16;;;;;;;18.48;16.75;;;19.20;99.90;;;;;;7363159;19;20018;-70
2023/05/15 08:17:43;;;;;;;17.50;15.85;;;19.50;99.90;;;;;;7363486;19;20026;-70
2023/05/15 08:20:10;;;;;;;17.25;15.57;;;19.60;99.90;;;;;;7364227;19;20477;-71
2023/05/15 08:22:36;;;;;;;17.98;15.98;;;19.20;99.90;;;;;;7365834;19;20723;-61
2023/05/15 08:25:04;;;;;;;17.13;15.63;;;19.30;99.90;;;;;;7366500;19;20493;-67
2023/05/15 08:27:31;;;;;;;17.45;15.75;;;19.20;99.90;;;;;;7367877;19;20862;-65
2023/05/15 08:29:57;;;;;;;17.00;15.30;;;19.40;99.90;;;;;;7369106;19;20443;-61
2023/05/15 08:32:24;;;;;;;15.43;13.93;;;19.60;99.90;;;;;;7365649;19;20010;-61
2023/05/15 08:34:50;;;;;;;16.80;15.30;;;19.70;99.90;;;;;;7366873;19;20529;-70
2023/05/15 08:37:17;;;;;;;17.13;15.52;;;19.90;99.90;;;;;;7367688;19;20057;-69
2023/05/15 08:39:43;;;;;;;17.75;15.65;;;20.00;99.90;;;;;;7372112;19;20514;-69
2023/05/15 08:42:29;;;;;;;17.90;16.30;;;20.10;99.90;;;;;;7371323;19;20406;-69
2023/05/15 08:44:56;;;;;;;18.38;16.40;;;19.90;99.10;;;;;;7372374;19;20469;-65
2023/05/15 08:47:23;;;;;;;17.25;15.55;;;20.40;99.90;;;;;;7370939;19;20457;-69
2023/05/15 08:50:06;;;;;;;16.90;15.40;;;20.90;96.60;;;;;;7376320;19;20367;-60
2023/05/15 08:52:33;;;;;;;17.52;15.90;;;21.00;97.40;;;;;;7368597;19;20490;-60
2023/05/15 08:55:01;;;;;;;16.40;14.70;;;21.10;96.30;;;;;;7369847;19;20596;-60
2023/05/15 08:57:27;;;;;;;17.35;15.75;;;21.30;83.20;;;;;;7373663;19;20074;-67
2023/05/15 08:59:54;;;;;;;16.50;14.95;;;21.50;91.90;;;;;;7375360;19;20485;-68
2023/05/15 09:02:21;;;;;;;16.60;15.02;;;21.50;79.30;;;;;;7373610;19;20033;-68
2023/05/15 09:04:47;;;;;;;15.02;13.60;;;21.80;92.90;;;;;;7371363;19;20014;-68
2023/05/15 09:07:15;;;;;;;17.58;15.88;;;22.30;79.20;;;;;;7368319;19;20396;-68
2023/05/15 09:09:43;;;;;;;16.80;15.18;;;22.10;73.10;;;;;;7374118;19;20029;-68
2023/05/15 09:12:14;;;;;;;16.02;14.48;;;22.50;73.60;;;;;;7374210;19;20041;-67
2023/05/15 09:14:41;;;;;;;16.02;14.68;;;21.80;68.10;;;;;;7371133;19;20794;-68
2023/05/15 09:17:11;;;;;;;15.10;13.73;;;21.80;68.10;;;;;;7370012;19;20347;-67
2023/05/15 09:19:41;;;;;;;16.25;14.68;;;22.10;67.50;;;;;;7377484;19;20086;-67
2023/05/15 09:22:16;;;;;;;17.75;15.93;;;22.20;66.60;;;;;;7374090;19;20565;-67
2023/05/15 09:24:50;;;;;;;19.02;16.98;;;22.00;67.40;;;;;;7378873;19;20018;-67
2023/05/15 09:27:18;;;;;;;15.70;14.13;;;22.30;68.60;;;;;;7381945;19;20011;-67
2023/05/15 09:29:44;;;;;;;15.77;14.15;;;22.40;69.40;;;;;;7374228;19;20592;-62
2023/05/15 09:32:14;;;;;;;16.27;14.80;;;22.50;66.60;;;;;;7370639;19;20026;-61
2023/05/15 09:34:43;;;;;;;16.42;14.90;;;22.30;69.00;;;;;;7364787;19;20029;-61
2023/05/15 09:37:12;;;;;;;16.98;15.18;;;21.80;68.30;;;;;;7363250;19;20470;-60
2023/05/15 09:39:45;;;;;;;15.55;13.98;;;21.80;70.60;;;;;;7362220;19;20018;-60
2023/05/15 09:42:14;;;;;;;18.98;16.85;;;22.30;75.20;;;;;;7372222;19;20090;-61
2023/05/15 09:44:42;;;;;;;17.23;15.60;;;22.40;74.00;;;;;;7367133;19;20018;-61
2023/05/15 09:47:10;;;;;;;16.30;14.80;;;22.30;69.30;;;;;;7367283;19;20050;-61
2023/05/15 09:49:37;;;;;;;16.33;14.82;;;22.50;69.10;;;;;;7369720;19;20082;-61
2023/05/15 09:52:08;;;;;;;16.38;14.73;;;22.00;69.20;;;;;;7371552;19;20074;-61
2023/05/15 09:54:35;;;;;;;15.98;14.48;;;22.20;66.90;;;;;;7377283;19;20026;-66
2023/05/15 09:57:10;;;;;;;15.00;13.43;;;22.20;66.10;;;;;;7363556;19;20010;-60
2023/05/15 09:59:46;;;;;;;15.43;13.95;;;22.30;65.30;;;;;;7371836;19;20022;-60
2023/05/15 10:02:23;;;;;;;15.73;14.23;;;23.10;64.80;;;;;;7371388;19;20014;-60
2023/05/15 10:04:56;;;;;;;13.82;12.63;;;22.90;62.70;;;;;;7376207;19;20026;-66
2023/05/15 10:07:33;;;;;;;14.43;13.13;;;23.00;62.80;;;;;;7375491;19;20103;-67
2023/05/15 10:10:01;;;;;;;14.43;13.02;;;22.70;61.60;;;;;;7369514;19;20366;-66
2023/05/15 10:12:31;;;;;;;13.27;11.97;;;23.10;60.10;;;;;;7381149;19;20481;-67
2023/05/15 10:14:59;;;;;;;14.15;12.82;;;23.60;59.40;;;;;;7381530;19;20049;-68
2023/05/15 10:17:33;;;;;;;33.38;14.23;;;24.00;59.50;;;;;;7376510;19;20752;-67
2023/05/15 10:20:03;;;;;;;13.90;12.00;;;24.00;58.30;;;;;;7370723;19;20021;-67
2023/05/15 10:22:34;;;;;;;11.13;10.13;;;24.20;58.90;;;;;;7374342;19;20011;-68
2023/05/15 10:25:14;;;;;;;9.88;8.90;;;24.00;55.30;;;;;;7373390;19;20401;-62
2023/05/15 10:27:41;;;;;;;12.57;9.77;;;24.10;53.00;;;;;;7375242;19;20558;-67
2023/05/15 10:30:10;;;;;;;12.43;11.15;;;24.10;54.90;;;;;;7382739;19;20022;-67
2023/05/15 10:32:40;;;;;;;12.77;10.57;;;24.00;54.70;;;;;;7373759;19;20018;-62
2023/05/15 10:35:09;;;;;;;12.98;11.77;;;24.30;55.30;;;;;;7369100;19;20466;-62
2023/05/15 10:37:37;;;;;;;12.90;11.75;;;24.60;55.20;;;;;;7370339;19;20019;-61
2023/05/15 10:40:07;;;;;;;14.57;13.27;;;24.50;54.60;;;;;;7377977;19;20029;-67
2023/05/15 10:42:34;;;;;;;15.00;13.60;;;24.60;55.80;;;;;;7379402;19;20360;-67
2023/05/15 10:45:01;;;;;;;14.55;13.13;;;24.90;55.20;;;;;;7377341;19;20082;-67
2023/05/15 10:47:30;;;;;;;16.45;12.80;;;24.40;56.10;;;;;;7377986;19;20715;-67
2023/05/15 10:49:57;;;;;;;13.80;12.60;;;24.30;55.50;;;;;;7381449;19;20491;-67
2023/05/15 10:52:24;;;;;;;14.82;13.27;;;23.80;56.80;;;;;;7381704;19;20039;-67
2023/05/15 10:54:53;;;;;;;13.25;12.02;;;23.60;56.70;;;;;;7383768;19;20493;-67
2023/05/15 10:57:21;;;;;;;14.63;13.02;;;23.50;57.50;;;;;;7379794;19;20046;-61
2023/05/15 10:59:47;;;;;;;16.10;14.13;;;23.20;58.60;;;;;;7370744;19;20007;-61
2023/05/15 11:02:25;;;;;;;16.13;14.57;;;22.90;59.00;;;;;;7365171;19;20461;-61
2023/05/15 11:05:04;;;;;;;15.88;14.48;;;22.60;59.60;;;;;;7374242;19;20013;-67
2023/05/15 11:07:31;;;;;;;15.75;14.38;;;22.90;60.00;;;;;;7382652;19;20077;-67
2023/05/15 11:09:57;;;;;;;19.05;13.88;;;23.60;59.40;;;;;;7388857;19;20072;-66
2023/05/15 11:12:23;;;;;;;22.45;13.98;;;23.80;58.80;;;;;;7384135;19;20018;-61
2023/05/15 11:14:55;;;;;;;15.10;13.73;;;23.80;58.10;;;;;;7370033;19;20035;-61
2023/05/15 11:17:23;;;;;;;41.03;17.85;;;23.80;57.90;;;;;;7368513;19;20018;-62
2023/05/15 11:19:49;;;;;;;22.17;20.10;;;23.10;58.30;;;;;;7370477;19;20021;-61
2023/05/15 11:22:19;;;;;;;15.48;14.07;;;23.30;59.40;;;;;;7369686;19;20018;-61
2023/05/15 11:24:56;;;;;;;19.15;15.00;;;22.90;59.20;;;;;;7372824;19;20534;-62
2023/05/15 11:27:25;;;;;;;17.65;15.95;;;22.00;60.60;;;;;;7381957;19;20833;-67
2023/05/15 11:30:03;;;;;;;16.15;14.65;;;22.70;62.00;;;;;;7386779;19;20641;-67
2023/05/15 11:32:50;;;;;;;15.32;13.88;;;23.00;61.50;;;;;;7386551;19;20022;-66
2023/05/15 11:35:18;;;;;;;14.80;13.40;;;22.90;61.40;;;;;;7379031;19;20368;-61
2023/05/15 11:37:53;;;;;;;15.57;14.18;;;22.40;61.40;;;;;;7371075;19;20018;-60
2023/05/15 11:40:27;;;;;;;14.07;12.73;;;23.30;62.60;;;;;;7374539;19;20363;-61
2023/05/15 11:43:02;;;;;;;14.68;12.95;;;23.20;61.00;;;;;;7373296;19;20612;-61
2023/05/15 11:45:31;;;;;;;14.32;12.90;;;23.00;60.30;;;;;;7374416;19;20474;-62
2023/05/15 11:48:02;;;;;;;14.52;13.23;;;23.00;61.70;;;;;;7384359;19;20474;-67
2023/05/15 11:50:31;;;;;;;14.13;12.93;;;23.70;60.60;;;;;;7387570;19;20610;-67
2023/05/15 11:53:01;;;;;;;12.77;11.57;;;23.40;60.10;;;;;;7385346;19;20620;-67
2023/05/15 11:55:29;;;;;;;12.82;11.40;;;23.40;59.40;;;;;;7376566;19;20018;-66
2023/05/15 11:57:55;;;;;;;13.50;11.30;;;23.10;58.60;;;;;;7385632;19;20405;-67
2023/05/15 12:00:22;;;;;;;12.73;10.73;;;22.80;59.30;;;;;;7385092;19;20018;-67
2023/05/15 12:02:48;;;;;;;13.90;10.85;;;22.30;59.90;;;;;;7369353;19;20851;-61
2023/05/15 12:05:15;;;;;;;17.10;11.35;;;22.10;60.80;;;;;;7369649;19;20514;-61
2023/05/15 12:07:43;;;;;;;12.95;11.65;;;21.70;61.00;;;;;;7372584;19;20438;-60
2023/05/15 12:10:11;;;;;;;13.18;11.55;;;21.70;61.90;;;;;;7374734;19;20112;-61
2023/05/15 12:12:42;;;;;;;11.68;10.55;;;21.90;62.00;;;;;;7374164;19;20493;-61
2023/05/15 12:15:13;;;;;;;12.80;11.50;;;22.30;61.30;;;;;;7373651;19;20465;-61
2023/05/15 12:17:42;;;;;;;12.13;10.93;;;22.30;60.80;;;;;;7369201;19;20031;-61
2023/05/15 12:20:14;;;;;;;11.75;10.63;;;22.00;60.10;;;;;;7373917;19;20686;-68
2023/05/15 12:22:42;;;;;;;12.23;10.05;;;22.00;60.40;;;;;;7383171;19;20019;-66
2023/05/15 12:25:10;;;;;;;11.27;10.18;;;22.60;59.30;;;;;;7384069;19;20014;-67
2023/05/15 12:27:38;;;;;;;13.55;10.18;;;22.70;58.30;;;;;;7379461;19;20120;-66
2023/05/15 12:30:05;;;;;;;11.43;10.32;;;22.60;57.10;;;;;;7371353;19;20018;-63
2023/05/15 12:32:34;;;;;;;11.20;9.23;;;23.00;57.00;;;;;;7372948;19;20389;-61
2023/05/15 12:35:01;;;;;;;12.93;11.60;;;23.60;56.50;;;;;;7371505;19;20017;-67